Die Wetterstation in Yach-Sommerrain 515m üNN
Wetterdaten: aktuell Sonntag, 06.09.2026 13:00
Datum Zeit Temp. A. Feuchte A. Luftdruck Regen Wind Richtung Richtung Solar Taupunkt Windchill Windböen Empfang
06.09.2026 13:00 24,2 °C 49 % 1027,7 hPa 0,0 l/m² 9,0 km/h (2 Bft) O-SO 108 ° 733 W/m² 12,8 °C 23,5 °C 14,5 km/h (3 Bft) 100 %
06.09.2026 12:55 24,1 °C 49 % 1027,7 hPa 0,0 l/m² 12,3 km/h (3 Bft) O-NO 75 ° 718 W/m² 12,7 °C 22,7 °C 17,7 km/h (3 Bft) 100 %
06.09.2026 12:50 24,5 °C 49 % 1027,7 hPa 0,0 l/m² 8,1 km/h (2 Bft) O-SO 110 ° 738 W/m² 13,1 °C 24,1 °C 16,1 km/h (3 Bft) 100 %
06.09.2026 12:45 24,2 °C 50 % 1027,7 hPa 0,0 l/m² 8,2 km/h (2 Bft) O 100 ° 743 W/m² 13,1 °C 23,7 °C 14,5 km/h (3 Bft) 100 %
06.09.2026 12:40 24,1 °C 50 % 1027,8 hPa 0,0 l/m² 12,4 km/h (3 Bft) O 97 ° 745 W/m² 13,0 °C 22,7 °C 19,3 km/h (3 Bft) 100 %
06.09.2026 12:35 24,1 °C 50 % 1027,9 hPa 0,0 l/m² 11,3 km/h (2 Bft) O 91 ° 729 W/m² 13,0 °C 22,9 °C 19,3 km/h (3 Bft) 100 %
06.09.2026 12:30 24,2 °C 49 % 1027,8 hPa 0,0 l/m² 7,2 km/h (2 Bft) O-SO 113 ° 740 W/m² 12,8 °C 24,0 °C 16,1 km/h (3 Bft) 100 %
06.09.2026 12:25 23,9 °C 50 % 1027,8 hPa 0,0 l/m² 4,2 km/h (1 Bft) O-SO 119 ° 734 W/m² 12,8 °C 23,9 °C 9,7 km/h (2 Bft) 100 %
06.09.2026 12:20 23,4 °C 50 % 1027,9 hPa 0,0 l/m² 6,7 km/h (2 Bft) S-SO 147 ° 728 W/m² 12,4 °C 23,3 °C 16,1 km/h (3 Bft) 100 %
06.09.2026 12:15 23,5 °C 51 % 1027,9 hPa 0,0 l/m² 8,9 km/h (2 Bft) SO 127 ° 723 W/m² 12,8 °C 22,8 °C 14,5 km/h (3 Bft) 100 %
06.09.2026 12:10 23,7 °C 51 % 1028,0 hPa 0,0 l/m² 6,3 km/h (2 Bft) O-SO 104 ° 717 W/m² 13,0 °C 23,7 °C 12,9 km/h (3 Bft) 100 %
06.09.2026 12:05 23,1 °C 52 % 1028,1 hPa 0,0 l/m² 8,6 km/h (2 Bft) O-SO 108 ° 712 W/m² 12,7 °C 22,4 °C 14,5 km/h (3 Bft) 100 %
06.09.2026 12:00 22,7 °C 53 % 1028,2 hPa 0,0 l/m² 9,4 km/h (2 Bft) SO 124 ° 706 W/m² 12,6 °C 21,8 °C 16,1 km/h (3 Bft) 100 %
06.09.2026 11:55 22,4 °C 54 % 1028,2 hPa 0,0 l/m² 9,3 km/h (2 Bft) O 86 ° 699 W/m² 12,6 °C 21,5 °C 14,5 km/h (3 Bft) 100 %
06.09.2026 11:50 22,2 °C 54 % 1028,3 hPa 0,0 l/m² 9,8 km/h (2 Bft) O 91 ° 692 W/m² 12,4 °C 21,1 °C 17,7 km/h (3 Bft) 100 %
06.09.2026 11:45 21,9 °C 54 % 1028,3 hPa 0,0 l/m² 9,7 km/h (2 Bft) O 101 ° 685 W/m² 12,2 °C 20,8 °C 16,1 km/h (3 Bft) 100 %
06.09.2026 11:40 21,8 °C 54 % 1028,3 hPa 0,0 l/m² 9,2 km/h (2 Bft) O 93 ° 679 W/m² 12,1 °C 20,9 °C 14,5 km/h (3 Bft) 100 %
06.09.2026 11:35 21,7 °C 55 % 1028,3 hPa 0,0 l/m² 7,6 km/h (2 Bft) O-SO 104 ° 671 W/m² 12,3 °C 21,3 °C 12,9 km/h (3 Bft) 100 %
06.09.2026 11:30 21,4 °C 55 % 1028,3 hPa 0,0 l/m² 8,1 km/h (2 Bft) O-SO 108 ° 663 W/m² 12,0 °C 20,8 °C 12,9 km/h (3 Bft) 100 %
06.09.2026 11:25 21,3 °C 55 % 1028,4 hPa 0,0 l/m² 7,6 km/h (2 Bft) O-SO 109 ° 655 W/m² 11,9 °C 20,9 °C 14,5 km/h (3 Bft) 100 %
06.09.2026 11:20 21,1 °C 56 % 1028,4 hPa 0,0 l/m² 7,9 km/h (2 Bft) O-NO 71 ° 647 W/m² 12,0 °C 20,5 °C 14,5 km/h (3 Bft) 100 %
06.09.2026 11:15 20,9 °C 56 % 1028,5 hPa 0,0 l/m² 6,5 km/h (2 Bft) O-SO 105 ° 638 W/m² 11,8 °C 20,9 °C 12,9 km/h (3 Bft) 100 %
06.09.2026 11:10 20,4 °C 58 % 1028,6 hPa 0,0 l/m² 6,0 km/h (2 Bft) SO 124 ° 624 W/m² 11,9 °C 20,4 °C 11,3 km/h (2 Bft) 100 %
06.09.2026 11:05 19,9 °C 59 % 1028,5 hPa 0,0 l/m² 5,3 km/h (1 Bft) O-SO 113 ° 601 W/m² 11,6 °C 19,9 °C 9,7 km/h (2 Bft) 100 %
06.09.2026 11:00 19,6 °C 61 % 1028,6 hPa 0,0 l/m² 3,4 km/h (1 Bft) O 100 ° 224 W/m² 11,9 °C 19,6 °C 6,4 km/h (2 Bft) 100 %
06.09.2026 10:55 19,3 °C 61 % 1028,7 hPa 0,0 l/m² 4,3 km/h (1 Bft) O-SO 122 ° 233 W/m² 11,6 °C 19,3 °C 8,0 km/h (2 Bft) 100 %
06.09.2026 10:50 18,7 °C 62 % 1028,6 hPa 0,0 l/m² 2,2 km/h (1 Bft) O-SO 107 ° 208 W/m² 11,3 °C 18,7 °C 4,8 km/h (1 Bft) 100 %
06.09.2026 10:45 18,4 °C 64 % 1028,8 hPa 0,0 l/m² 2,9 km/h (1 Bft) O 95 ° 156 W/m² 11,5 °C 18,4 °C 4,8 km/h (1 Bft) 100 %
06.09.2026 10:40 18,1 °C 65 % 1028,9 hPa 0,0 l/m² 3,5 km/h (1 Bft) O 94 ° 56 W/m² 11,4 °C 18,1 °C 6,4 km/h (2 Bft) 100 %
06.09.2026 10:35 17,8 °C 66 % 1028,9 hPa 0,0 l/m² 4,0 km/h (1 Bft) O-SO 107 ° 50 W/m² 11,4 °C 17,8 °C 6,4 km/h (2 Bft) 100 %
06.09.2026 10:30 17,1 °C 68 % 1028,8 hPa 0,0 l/m² 3,2 km/h (1 Bft) O-SO 116 ° 48 W/m² 11,1 °C 17,1 °C 9,7 km/h (2 Bft) 100 %
06.09.2026 10:25 16,7 °C 68 % 1028,7 hPa 0,0 l/m² 1,7 km/h (1 Bft) NO 36 ° 47 W/m² 10,8 °C 16,7 °C 6,4 km/h (2 Bft) 100 %
06.09.2026 10:20 16,3 °C 69 % 1028,8 hPa 0,0 l/m² 0,0 km/h (0 Bft) O 87 ° 46 W/m² 10,6 °C 16,3 °C 0,0 km/h (0 Bft) 100 %
06.09.2026 10:15 16,1 °C 71 % 1028,7 hPa 0,0 l/m² 0,0 km/h (0 Bft) O 88 ° 43 W/m² 10,8 °C 16,1 °C 0,0 km/h (0 Bft) 100 %
06.09.2026 10:10 15,8 °C 72 % 1028,7 hPa 0,0 l/m² 0,0 km/h (0 Bft) O 80 ° 43 W/m² 10,8 °C 15,8 °C 0,0 km/h (0 Bft) 100 %
06.09.2026 10:05 15,6 °C 72 % 1028,9 hPa 0,0 l/m² 0,4 km/h (0 Bft) O 80 ° 41 W/m² 10,6 °C 15,6 °C 1,6 km/h (1 Bft) 100 %
06.09.2026 10:00 15,4 °C 72 % 1028,8 hPa 0,0 l/m² 1,6 km/h (1 Bft) O 80 ° 39 W/m² 10,4 °C 15,4 °C 3,2 km/h (1 Bft) 100 %
06.09.2026 09:55 15,2 °C 73 % 1028,8 hPa 0,0 l/m² 1,1 km/h (1 Bft) O 80 ° 36 W/m² 10,4 °C 15,2 °C 3,2 km/h (1 Bft) 100 %
06.09.2026 09:50 15,1 °C 73 % 1028,8 hPa 0,0 l/m² 1,3 km/h (1 Bft) O 80 ° 31 W/m² 10,3 °C 15,1 °C 3,2 km/h (1 Bft) 100 %
06.09.2026 09:45 14,9 °C 72 % 1028,8 hPa 0,0 l/m² 1,6 km/h (1 Bft) O 80 ° 28 W/m² 9,9 °C 14,9 °C 3,2 km/h (1 Bft) 100 %
06.09.2026 09:40 14,8 °C 72 % 1028,8 hPa 0,0 l/m² 2,2 km/h (1 Bft) O 80 ° 28 W/m² 9,8 °C 14,8 °C 3,2 km/h (1 Bft) 100 %
06.09.2026 09:35 14,6 °C 73 % 1028,9 hPa 0,0 l/m² 1,9 km/h (1 Bft) O 80 ° 26 W/m² 9,8 °C 14,6 °C 3,2 km/h (1 Bft) 100 %
06.09.2026 09:30 14,3 °C 73 % 1028,7 hPa 0,0 l/m² 2,8 km/h (1 Bft) O 80 ° 24 W/m² 9,5 °C 14,3 °C 4,8 km/h (1 Bft) 100 %
06.09.2026 09:25 13,9 °C 73 % 1028,8 hPa 0,0 l/m² 2,6 km/h (1 Bft) O 80 ° 22 W/m² 9,1 °C 13,9 °C 4,8 km/h (1 Bft) 100 %
06.09.2026 09:20 13,7 °C 74 % 1028,7 hPa 0,0 l/m² 2,0 km/h (1 Bft) O 80 ° 21 W/m² 9,2 °C 13,7 °C 3,2 km/h (1 Bft) 100 %
06.09.2026 09:15 13,6 °C 74 % 1028,8 hPa 0,0 l/m² 1,9 km/h (1 Bft) O 80 ° 19 W/m² 9,1 °C 13,6 °C 4,8 km/h (1 Bft) 100 %
06.09.2026 09:10 13,4 °C 74 % 1028,8 hPa 0,0 l/m² 1,7 km/h (1 Bft) O 80 ° 19 W/m² 8,9 °C 13,4 °C 3,2 km/h (1 Bft) 100 %
06.09.2026 09:05 13,3 °C 74 % 1028,9 hPa 0,0 l/m² 2,1 km/h (1 Bft) O 80 ° 18 W/m² 8,8 °C 13,3 °C 3,2 km/h (1 Bft) 100 %
06.09.2026 09:00 13,1 °C 75 % 1028,9 hPa 0,0 l/m² 2,4 km/h (1 Bft) O 80 ° 18 W/m² 8,8 °C 13,1 °C 4,8 km/h (1 Bft) 100 %
06.09.2026 08:55 13,0 °C 76 % 1029,1 hPa 0,0 l/m² 1,8 km/h (1 Bft) O 80 ° 16 W/m² 8,9 °C 13,0 °C 3,2 km/h (1 Bft) 100 %
06.09.2026 08:50 12,9 °C 76 % 1029,0 hPa 0,0 l/m² 1,8 km/h (1 Bft) O 80 ° 16 W/m² 8,8 °C 12,9 °C 3,2 km/h (1 Bft) 100 %
06.09.2026 08:45 12,8 °C 77 % 1029,2 hPa 0,0 l/m² 1,4 km/h (1 Bft) O 80 ° 15 W/m² 8,9 °C 12,8 °C 3,2 km/h (1 Bft) 100 %
06.09.2026 08:40 12,7 °C 77 % 1029,2 hPa 0,0 l/m² 1,9 km/h (1 Bft) O 80 ° 14 W/m² 8,8 °C 12,7 °C 3,2 km/h (1 Bft) 100 %
06.09.2026 08:35 12,6 °C 77 % 1029,1 hPa 0,0 l/m² 0,4 km/h (0 Bft) O 80 ° 14 W/m² 8,7 °C 12,6 °C 4,8 km/h (1 Bft) 100 %
06.09.2026 08:30 12,5 °C 77 % 1029,2 hPa 0,0 l/m² 0,9 km/h (0 Bft) O 81 ° 12 W/m² 8,6 °C 12,5 °C 3,2 km/h (1 Bft) 100 %
06.09.2026 08:25 12,3 °C 77 % 1029,0 hPa 0,0 l/m² 1,8 km/h (1 Bft) O 81 ° 12 W/m² 8,4 °C 12,3 °C 6,4 km/h (2 Bft) 100 %
06.09.2026 08:20 12,1 °C 79 % 1029,1 hPa 0,0 l/m² 1,0 km/h (0 Bft) O-NO 74 ° 12 W/m² 8,6 °C 12,1 °C 3,2 km/h (1 Bft) 100 %
06.09.2026 08:15 11,8 °C 79 % 1029,2 hPa 0,0 l/m² 0,1 km/h (0 Bft) O-NO 74 ° 11 W/m² 8,3 °C 11,8 °C 1,6 km/h (1 Bft) 100 %
06.09.2026 08:10 11,7 °C 78 % 1029,0 hPa 0,0 l/m² 0,9 km/h (0 Bft) O-NO 74 ° 11 W/m² 8,0 °C 11,7 °C 3,2 km/h (1 Bft) 100 %
06.09.2026 08:05 11,7 °C 78 % 1028,9 hPa 0,0 l/m² 0,6 km/h (0 Bft) O-NO 74 ° 11 W/m² 8,0 °C 11,7 °C 3,2 km/h (1 Bft) 100 %
06.09.2026 08:00 11,7 °C 78 % 1028,9 hPa 0,0 l/m² 0,7 km/h (0 Bft) O-NO 74 ° 11 W/m² 8,0 °C 11,7 °C 3,2 km/h (1 Bft) 100 %
06.09.2026 07:55 11,8 °C 78 % 1028,9 hPa 0,0 l/m² 0,0 km/h (0 Bft) O-NO 74 ° 9 W/m² 8,1 °C 11,8 °C 0,0 km/h (0 Bft) 100 %
06.09.2026 07:50 11,8 °C 77 % 1029,0 hPa 0,0 l/m² 0,1 km/h (0 Bft) O-NO 74 ° 9 W/m² 7,9 °C 11,8 °C 1,6 km/h (1 Bft) 100 %
06.09.2026 07:45 11,9 °C 77 % 1029,0 hPa 0,0 l/m² 0,0 km/h (0 Bft) O-NO 74 ° 9 W/m² 8,0 °C 11,9 °C 1,6 km/h (1 Bft) 100 %
06.09.2026 07:40 12,1 °C 77 % 1028,9 hPa 0,0 l/m² 0,4 km/h (0 Bft) O-NO 74 ° 7 W/m² 8,2 °C 12,1 °C 3,2 km/h (1 Bft) 100 %
06.09.2026 07:35 12,2 °C 76 % 1028,9 hPa 0,0 l/m² 0,8 km/h (0 Bft) O-NO 74 ° 7 W/m² 8,1 °C 12,2 °C 3,2 km/h (1 Bft) 100 %
06.09.2026 07:30 12,4 °C 76 % 1028,7 hPa 0,0 l/m² 0,0 km/h (0 Bft) O-NO 74 ° 7 W/m² 8,3 °C 12,4 °C 1,6 km/h (1 Bft) 100 %
06.09.2026 07:25 12,4 °C 76 % 1028,6 hPa 0,0 l/m² 0,2 km/h (0 Bft) O-NO 74 ° 5 W/m² 8,3 °C 12,4 °C 1,6 km/h (1 Bft) 100 %
06.09.2026 07:20 12,4 °C 76 % 1028,6 hPa 0,0 l/m² 0,8 km/h (0 Bft) O-NO 74 ° 5 W/m² 8,3 °C 12,4 °C 3,2 km/h (1 Bft) 100 %
06.09.2026 07:15 12,3 °C 76 % 1028,8 hPa 0,0 l/m² 0,7 km/h (0 Bft) O-NO 74 ° 3 W/m² 8,2 °C 12,3 °C 3,2 km/h (1 Bft) 100 %
06.09.2026 07:10 12,2 °C 76 % 1028,9 hPa 0,0 l/m² 0,3 km/h (0 Bft) O-NO 74 ° 0 W/m² 8,1 °C 12,2 °C 3,2 km/h (1 Bft) 100 %
06.09.2026 07:05 12,2 °C 76 % 1028,7 hPa 0,0 l/m² 0,0 km/h (0 Bft) O-NO 74 ° 0 W/m² 8,1 °C 12,2 °C 0,0 km/h (0 Bft) 100 %
06.09.2026 07:00 12,2 °C 76 % 1028,7 hPa 0,0 l/m² 0,0 km/h (0 Bft) O-NO 74 ° 0 W/m² 8,1 °C 12,2 °C 0,0 km/h (0 Bft) 100 %
06.09.2026 06:55 12,2 °C 76 % 1028,7 hPa 0,0 l/m² 0,0 km/h (0 Bft) O-NO 74 ° 0 W/m² 8,1 °C 12,2 °C 0,0 km/h (0 Bft) 100 %
06.09.2026 06:50 12,1 °C 75 % 1028,6 hPa 0,0 l/m² 0,0 km/h (0 Bft) O-NO 74 ° 0 W/m² 7,8 °C 12,1 °C 0,0 km/h (0 Bft) 100 %
06.09.2026 06:45 12,0 °C 77 % 1028,8 hPa 0,0 l/m² 0,0 km/h (0 Bft) O-NO 74 ° 0 W/m² 8,1 °C 12,0 °C 0,0 km/h (0 Bft) 100 %
06.09.2026 06:40 11,9 °C 76 % 1028,8 hPa 0,0 l/m² 0,0 km/h (0 Bft) O-NO 74 ° 0 W/m² 7,8 °C 11,9 °C 0,0 km/h (0 Bft) 100 %
06.09.2026 06:35 12,1 °C 75 % 1028,7 hPa 0,0 l/m² 0,0 km/h (0 Bft) O-NO 74 ° 0 W/m² 7,8 °C 12,1 °C 1,6 km/h (1 Bft) 100 %
06.09.2026 06:30 12,2 °C 75 % 1028,6 hPa 0,0 l/m² 0,4 km/h (0 Bft) O-NO 74 ° 0 W/m² 7,9 °C 12,2 °C 3,2 km/h (1 Bft) 100 %
06.09.2026 06:25 12,3 °C 76 % 1028,7 hPa 0,0 l/m² 0,5 km/h (0 Bft) O-NO 74 ° 0 W/m² 8,2 °C 12,3 °C 3,2 km/h (1 Bft) 100 %
06.09.2026 06:20 12,4 °C 75 % 1028,6 hPa 0,0 l/m² 0,6 km/h (0 Bft) O-NO 74 ° 0 W/m² 8,1 °C 12,4 °C 1,6 km/h (1 Bft) 100 %
06.09.2026 06:15 12,4 °C 74 % 1028,6 hPa 0,0 l/m² 1,1 km/h (1 Bft) O-NO 74 ° 0 W/m² 7,9 °C 12,4 °C 3,2 km/h (1 Bft) 100 %
06.09.2026 06:10 12,4 °C 75 % 1028,5 hPa 0,0 l/m² 0,4 km/h (0 Bft) O-NO 74 ° 0 W/m² 8,1 °C 12,4 °C 1,6 km/h (1 Bft) 100 %
06.09.2026 06:05 12,5 °C 75 % 1028,3 hPa 0,0 l/m² 0,9 km/h (0 Bft) O-NO 74 ° 0 W/m² 8,2 °C 12,5 °C 4,8 km/h (1 Bft) 100 %
06.09.2026 06:00 12,6 °C 75 % 1028,3 hPa 0,0 l/m² 0,7 km/h (0 Bft) O-NO 74 ° 0 W/m² 8,3 °C 12,6 °C 3,2 km/h (1 Bft) 100 %
06.09.2026 05:55 12,4 °C 76 % 1028,4 hPa 0,0 l/m² 0,7 km/h (0 Bft) O-NO 74 ° 0 W/m² 8,3 °C 12,4 °C 3,2 km/h (1 Bft) 100 %
06.09.2026 05:50 12,3 °C 76 % 1028,4 hPa 0,0 l/m² 0,5 km/h (0 Bft) O-NO 74 ° 0 W/m² 8,2 °C 12,3 °C 4,8 km/h (1 Bft) 100 %
06.09.2026 05:45 12,2 °C 76 % 1028,4 hPa 0,0 l/m² 0,5 km/h (0 Bft) O-NO 74 ° 0 W/m² 8,1 °C 12,2 °C 4,8 km/h (1 Bft) 100 %
06.09.2026 05:40 11,9 °C 76 % 1028,6 hPa 0,0 l/m² 0,0 km/h (0 Bft) O-NO 75 ° 0 W/m² 7,8 °C 11,9 °C 0,0 km/h (0 Bft) 100 %
06.09.2026 05:35 11,8 °C 76 % 1028,6 hPa 0,0 l/m² 0,0 km/h (0 Bft) O-NO 75 ° 0 W/m² 7,7 °C 11,8 °C 0,0 km/h (0 Bft) 100 %
06.09.2026 05:30 11,8 °C 77 % 1028,8 hPa 0,0 l/m² 0,0 km/h (0 Bft) O-NO 75 ° 0 W/m² 7,9 °C 11,8 °C 0,0 km/h (0 Bft) 100 %
06.09.2026 05:25 11,8 °C 76 % 1028,9 hPa 0,0 l/m² 0,1 km/h (0 Bft) O-NO 75 ° 0 W/m² 7,7 °C 11,8 °C 1,6 km/h (1 Bft) 100 %
06.09.2026 05:20 11,9 °C 76 % 1028,9 hPa 0,0 l/m² 0,1 km/h (0 Bft) O-NO 75 ° 0 W/m² 7,8 °C 11,9 °C 1,6 km/h (1 Bft) 100 %
06.09.2026 05:15 12,1 °C 75 % 1029,0 hPa 0,0 l/m² 0,1 km/h (0 Bft) O-NO 75 ° 0 W/m² 7,8 °C 12,1 °C 1,6 km/h (1 Bft) 100 %
06.09.2026 05:10 12,2 °C 75 % 1029,1 hPa 0,0 l/m² 0,2 km/h (0 Bft) O-NO 75 ° 0 W/m² 7,9 °C 12,2 °C 3,2 km/h (1 Bft) 100 %
06.09.2026 05:05 12,3 °C 75 % 1029,0 hPa 0,0 l/m² 0,0 km/h (0 Bft) O-NO 75 ° 0 W/m² 8,0 °C 12,3 °C 0,0 km/h (0 Bft) 100 %
06.09.2026 05:00 12,4 °C 74 % 1028,9 hPa 0,0 l/m² 0,0 km/h (0 Bft) O-NO 75 ° 0 W/m² 7,9 °C 12,4 °C 0,0 km/h (0 Bft) 100 %
06.09.2026 04:55 12,5 °C 74 % 1028,8 hPa 0,0 l/m² 0,0 km/h (0 Bft) O-NO 75 ° 0 W/m² 8,0 °C 12,5 °C 0,0 km/h (0 Bft) 100 %
06.09.2026 04:50 12,4 °C 74 % 1028,8 hPa 0,0 l/m² 0,0 km/h (0 Bft) O-NO 75 ° 0 W/m² 7,9 °C 12,4 °C 0,0 km/h (0 Bft) 100 %
06.09.2026 04:45 12,5 °C 74 % 1028,8 hPa 0,0 l/m² 0,0 km/h (0 Bft) O-NO 75 ° 0 W/m² 8,0 °C 12,5 °C 0,0 km/h (0 Bft) 100 %
06.09.2026 04:40 12,5 °C 73 % 1028,8 hPa 0,0 l/m² 0,0 km/h (0 Bft) O-NO 75 ° 0 W/m² 7,8 °C 12,5 °C 0,0 km/h (0 Bft) 100 %
06.09.2026 04:35 12,5 °C 73 % 1028,8 hPa 0,0 l/m² 0,0 km/h (0 Bft) O-NO 75 ° 0 W/m² 7,8 °C 12,5 °C 0,0 km/h (0 Bft) 100 %
06.09.2026 04:30 12,6 °C 72 % 1028,7 hPa 0,0 l/m² 0,0 km/h (0 Bft) O-NO 75 ° 0 W/m² 7,7 °C 12,6 °C 0,0 km/h (0 Bft) 100 %
06.09.2026 04:25 12,6 °C 72 % 1028,7 hPa 0,0 l/m² 0,0 km/h (0 Bft) O-NO 75 ° 0 W/m² 7,7 °C 12,6 °C 0,0 km/h (0 Bft) 100 %
06.09.2026 04:20 12,7 °C 72 % 1028,7 hPa 0,0 l/m² 0,0 km/h (0 Bft) O-NO 74 ° 0 W/m² 7,8 °C 12,7 °C 0,0 km/h (0 Bft) 100 %
06.09.2026 04:15 12,7 °C 71 % 1028,7 hPa 0,0 l/m² 0,0 km/h (0 Bft) O-NO 75 ° 0 W/m² 7,6 °C 12,7 °C 0,0 km/h (0 Bft) 100 %
06.09.2026 04:10 12,7 °C 70 % 1028,8 hPa 0,0 l/m² 0,0 km/h (0 Bft) O-NO 75 ° 0 W/m² 7,4 °C 12,7 °C 0,0 km/h (0 Bft) 100 %
06.09.2026 04:05 12,8 °C 71 % 1028,8 hPa 0,0 l/m² 0,0 km/h (0 Bft) O-NO 75 ° 0 W/m² 7,7 °C 12,8 °C 0,0 km/h (0 Bft) 100 %
06.09.2026 04:00 12,9 °C 71 % 1028,7 hPa 0,0 l/m² 0,0 km/h (0 Bft) O-NO 75 ° 0 W/m² 7,8 °C 12,9 °C 0,0 km/h (0 Bft) 100 %
06.09.2026 03:55 12,9 °C 71 % 1028,8 hPa 0,0 l/m² 0,3 km/h (0 Bft) O-NO 75 ° 0 W/m² 7,8 °C 12,9 °C 3,2 km/h (1 Bft) 100 %
06.09.2026 03:50 12,9 °C 70 % 1028,6 hPa 0,0 l/m² 1,2 km/h (1 Bft) O-NO 75 ° 0 W/m² 7,6 °C 12,9 °C 3,2 km/h (1 Bft) 100 %
06.09.2026 03:45 12,9 °C 70 % 1028,6 hPa 0,0 l/m² 0,0 km/h (0 Bft) O-NO 75 ° 0 W/m² 7,6 °C 12,9 °C 0,0 km/h (0 Bft) 100 %
06.09.2026 03:40 13,0 °C 70 % 1028,7 hPa 0,0 l/m² 0,0 km/h (0 Bft) O-NO 75 ° 0 W/m² 7,7 °C 13,0 °C 0,0 km/h (0 Bft) 100 %
06.09.2026 03:35 13,0 °C 69 % 1028,6 hPa 0,0 l/m² 0,1 km/h (0 Bft) O-NO 75 ° 0 W/m² 7,4 °C 13,0 °C 1,6 km/h (1 Bft) 100 %
06.09.2026 03:30 13,0 °C 70 % 1028,7 hPa 0,0 l/m² 0,0 km/h (0 Bft) O-NO 75 ° 0 W/m² 7,7 °C 13,0 °C 0,0 km/h (0 Bft) 100 %
06.09.2026 03:25 13,1 °C 70 % 1028,6 hPa 0,0 l/m² 0,0 km/h (0 Bft) O-NO 75 ° 0 W/m² 7,8 °C 13,1 °C 0,0 km/h (0 Bft) 100 %
06.09.2026 03:20 13,2 °C 69 % 1028,6 hPa 0,0 l/m² 0,0 km/h (0 Bft) O-NO 75 ° 0 W/m² 7,6 °C 13,2 °C 0,0 km/h (0 Bft) 100 %
06.09.2026 03:15 13,3 °C 68 % 1028,5 hPa 0,0 l/m² 0,0 km/h (0 Bft) O-NO 75 ° 0 W/m² 7,5 °C 13,3 °C 0,0 km/h (0 Bft) 100 %
06.09.2026 03:10 13,5 °C 69 % 1028,7 hPa 0,0 l/m² 0,0 km/h (0 Bft) O-NO 75 ° 0 W/m² 7,9 °C 13,5 °C 0,0 km/h (0 Bft) 100 %
06.09.2026 03:05 13,7 °C 69 % 1028,6 hPa 0,0 l/m² 0,1 km/h (0 Bft) O-NO 75 ° 0 W/m² 8,1 °C 13,7 °C 1,6 km/h (1 Bft) 100 %
06.09.2026 03:00 13,7 °C 68 % 1028,7 hPa 0,0 l/m² 1,6 km/h (1 Bft) O-NO 75 ° 0 W/m² 7,9 °C 13,7 °C 3,2 km/h (1 Bft) 100 %
06.09.2026 02:55 13,7 °C 68 % 1028,7 hPa 0,0 l/m² 0,6 km/h (0 Bft) O-NO 75 ° 0 W/m² 7,9 °C 13,7 °C 1,6 km/h (1 Bft) 100 %
06.09.2026 02:50 13,7 °C 68 % 1028,6 hPa 0,0 l/m² 0,3 km/h (0 Bft) O-NO 75 ° 0 W/m² 7,9 °C 13,7 °C 3,2 km/h (1 Bft) 100 %
06.09.2026 02:45 13,7 °C 68 % 1028,6 hPa 0,0 l/m² 0,0 km/h (0 Bft) O-NO 75 ° 0 W/m² 7,9 °C 13,7 °C 0,0 km/h (0 Bft) 100 %
06.09.2026 02:40 13,8 °C 68 % 1028,6 hPa 0,0 l/m² 0,0 km/h (0 Bft) O-NO 75 ° 0 W/m² 8,0 °C 13,8 °C 0,0 km/h (0 Bft) 100 %
06.09.2026 02:35 13,9 °C 68 % 1028,6 hPa 0,0 l/m² 0,7 km/h (0 Bft) O-NO 75 ° 0 W/m² 8,1 °C 13,9 °C 3,2 km/h (1 Bft) 100 %
06.09.2026 02:30 13,9 °C 68 % 1028,7 hPa 0,0 l/m² 0,0 km/h (0 Bft) O-NO 75 ° 0 W/m² 8,1 °C 13,9 °C 0,0 km/h (0 Bft) 100 %
06.09.2026 02:25 14,1 °C 68 % 1028,6 hPa 0,0 l/m² 0,3 km/h (0 Bft) O-NO 75 ° 0 W/m² 8,3 °C 14,1 °C 3,2 km/h (1 Bft) 100 %
06.09.2026 02:20 14,1 °C 68 % 1028,8 hPa 0,0 l/m² 1,8 km/h (1 Bft) O-NO 75 ° 0 W/m² 8,3 °C 14,1 °C 4,8 km/h (1 Bft) 100 %
06.09.2026 02:15 14,1 °C 68 % 1028,7 hPa 0,0 l/m² 1,3 km/h (1 Bft) O-NO 74 ° 0 W/m² 8,3 °C 14,1 °C 4,8 km/h (1 Bft) 100 %
06.09.2026 02:10 14,2 °C 66 % 1028,7 hPa 0,0 l/m² 1,1 km/h (1 Bft) O-NO 75 ° 0 W/m² 7,9 °C 14,2 °C 3,2 km/h (1 Bft) 100 %
06.09.2026 02:05 14,3 °C 65 % 1028,7 hPa 0,0 l/m² 0,9 km/h (0 Bft) O-NO 75 ° 0 W/m² 7,8 °C 14,3 °C 3,2 km/h (1 Bft) 100 %
06.09.2026 02:00 14,4 °C 66 % 1028,8 hPa 0,0 l/m² 0,6 km/h (0 Bft) O-NO 75 ° 0 W/m² 8,1 °C 14,4 °C 3,2 km/h (1 Bft) 100 %
06.09.2026 01:55 14,3 °C 66 % 1028,7 hPa 0,0 l/m² 2,3 km/h (1 Bft) O-NO 75 ° 0 W/m² 8,0 °C 14,3 °C 4,8 km/h (1 Bft) 100 %
06.09.2026 01:50 14,4 °C 64 % 1028,9 hPa 0,0 l/m² 0,0 km/h (0 Bft) O-NO 75 ° 0 W/m² 7,7 °C 14,4 °C 1,6 km/h (1 Bft) 100 %
06.09.2026 01:45 14,4 °C 64 % 1028,8 hPa 0,0 l/m² 0,4 km/h (0 Bft) O-NO 75 ° 0 W/m² 7,7 °C 14,4 °C 3,2 km/h (1 Bft) 100 %
06.09.2026 01:40 14,4 °C 65 % 1028,8 hPa 0,0 l/m² 0,5 km/h (0 Bft) O-NO 75 ° 0 W/m² 7,9 °C 14,4 °C 3,2 km/h (1 Bft) 100 %
06.09.2026 01:35 14,4 °C 65 % 1028,8 hPa 0,0 l/m² 1,5 km/h (1 Bft) O-NO 75 ° 0 W/m² 7,9 °C 14,4 °C 4,8 km/h (1 Bft) 100 %
06.09.2026 01:30 14,5 °C 64 % 1028,7 hPa 0,0 l/m² 2,0 km/h (1 Bft) O-NO 75 ° 0 W/m² 7,8 °C 14,5 °C 3,2 km/h (1 Bft) 100 %
06.09.2026 01:25 14,5 °C 65 % 1028,8 hPa 0,0 l/m² 1,8 km/h (1 Bft) O-NO 75 ° 0 W/m² 8,0 °C 14,5 °C 3,2 km/h (1 Bft) 100 %
06.09.2026 01:20 14,5 °C 66 % 1028,8 hPa 0,0 l/m² 0,3 km/h (0 Bft) O-SO 120 ° 0 W/m² 8,2 °C 14,5 °C 3,2 km/h (1 Bft) 100 %
06.09.2026 01:15 14,6 °C 67 % 1028,9 hPa 0,0 l/m² 0,9 km/h (0 Bft) O-SO 120 ° 0 W/m² 8,5 °C 14,6 °C 3,2 km/h (1 Bft) 100 %
06.09.2026 01:10 14,6 °C 66 % 1028,7 hPa 0,0 l/m² 1,2 km/h (1 Bft) O-SO 120 ° 0 W/m² 8,3 °C 14,6 °C 3,2 km/h (1 Bft) 100 %
06.09.2026 01:05 14,7 °C 66 % 1028,9 hPa 0,0 l/m² 0,0 km/h (0 Bft) O-SO 121 ° 0 W/m² 8,4 °C 14,7 °C 0,0 km/h (0 Bft) 100 %
06.09.2026 01:00 14,8 °C 66 % 1028,9 hPa 0,0 l/m² 0,2 km/h (0 Bft) O-SO 121 ° 0 W/m² 8,5 °C 14,8 °C 1,6 km/h (1 Bft) 100 %
06.09.2026 00:55 14,9 °C 66 % 1028,8 hPa 0,0 l/m² 0,0 km/h (0 Bft) O-SO 121 ° 0 W/m² 8,6 °C 14,9 °C 0,0 km/h (0 Bft) 100 %
06.09.2026 00:50 14,9 °C 65 % 1028,9 hPa 0,0 l/m² 0,0 km/h (0 Bft) O-SO 121 ° 0 W/m² 8,4 °C 14,9 °C 0,0 km/h (0 Bft) 100 %
06.09.2026 00:45 15,0 °C 65 % 1028,9 hPa 0,0 l/m² 0,8 km/h (0 Bft) O-SO 121 ° 0 W/m² 8,5 °C 15,0 °C 3,2 km/h (1 Bft) 100 %
06.09.2026 00:40 15,1 °C 66 % 1028,9 hPa 0,0 l/m² 0,1 km/h (0 Bft) O-SO 121 ° 0 W/m² 8,8 °C 15,1 °C 3,2 km/h (1 Bft) 100 %
06.09.2026 00:35 15,1 °C 66 % 1028,9 hPa 0,0 l/m² 0,0 km/h (0 Bft) O-SO 121 ° 0 W/m² 8,8 °C 15,1 °C 0,0 km/h (0 Bft) 100 %
06.09.2026 00:30 15,1 °C 65 % 1028,9 hPa 0,0 l/m² 0,0 km/h (0 Bft) O-SO 121 ° 0 W/m² 8,6 °C 15,1 °C 0,0 km/h (0 Bft) 100 %
06.09.2026 00:25 15,1 °C 66 % 1028,9 hPa 0,0 l/m² 0,0 km/h (0 Bft) O-SO 121 ° 0 W/m² 8,8 °C 15,1 °C 0,0 km/h (0 Bft) 100 %
06.09.2026 00:20 15,1 °C 66 % 1028,8 hPa 0,0 l/m² 0,0 km/h (0 Bft) O-SO 121 ° 0 W/m² 8,8 °C 15,1 °C 0,0 km/h (0 Bft) 100 %
06.09.2026 00:15 15,2 °C 67 % 1028,9 hPa 0,0 l/m² 0,0 km/h (0 Bft) O-SO 121 ° 0 W/m² 9,1 °C 15,2 °C 0,0 km/h (0 Bft) 100 %
06.09.2026 00:10 15,3 °C 68 % 1028,9 hPa 0,0 l/m² 0,2 km/h (0 Bft) O-SO 121 ° 0 W/m² 9,4 °C 15,3 °C 1,6 km/h (1 Bft) 100 %
06.09.2026 00:05 15,4 °C 68 % 1028,8 hPa 0,0 l/m² 1,2 km/h (1 Bft) O-SO 121 ° 0 W/m² 9,5 °C 15,4 °C 1,6 km/h (1 Bft) 100 %
06.09.2026 00:00 15,4 °C 68 % 1028,8 hPa 0,0 l/m² 0,0 km/h (0 Bft) O-SO 121 ° 0 W/m² 9,5 °C 15,4 °C 0,0 km/h (0 Bft) 100 %
_ Min-Zeit 08:10 12:30 12:45 - 00:00 - - - 04:10 08:00 00:00 00:00
Minimum _ 11,6 °C 49 % 1027,7 hPa - 0,0 km/h (0 Bft) - - - 7,4 °C 11,7 °C 0,0 km/h (0 Bft) 100 %
_ Max-Zeit 12:50 08:15 08:15 00:00 12:40 - - 12:40 12:45 12:50 12:35 00:00
Maximum _ 24,5 °C 79 % 1029,2 hPa 0,0 l/m² 12,4 km/h
O (3 Bft)
- - 745 W/m² 13,1 °C 24,1 °C 19,3 km/h
O (3 Bft)
100 %
Durchschnitt _ 15,0 °C 69 % 1028,7 hPa #0,0 l/m² 1,9 km/h (1 Bft) O - 264 W/m² 9,1 °C 14,9 °C 4,1 km/h (1 Bft) 100 %
Elztal-Wetter